Moira Smith — WDH3439 — position and weather

sailwx.info

Track history (hours):
 
Tides and Currents Weather Stations Pressure Air Temp Water Temp Dewpoint Dewpoint Depression Visibility Wind Speed Wind Dir Waves Ship Positions

Moira Smith

Owner: Port Imperial Ferry Corp, Weehawken, NJ. More information available from US FCC via Universal Licensing System and Coast Guard Vessel Documentation Center.

Last reported at 2017-Oct-22 04:29 UTC. Time now 2017-Oct-22 18:54 UTC.
Position N 40°46' W 074°01'.

Length 22 m.

Type: Passenger vessel. MMSI: 366834180.

Date/timePositionNaut miles runAvg speedWind from/ knotsBaromVisibWave heightAir tempDewpointWater temp
2017-Oct-22 04:29N 40°46' W 074°01'1 2.3
2017-Oct-22 04:00N 40°45' W 074°01'1 1.6
2017-Oct-22 03:30N 40°46' W 074°00'1 1.6
2017-Oct-22 03:00N 40°45' W 074°01'1 1.5
2017-Oct-22 02:30N 40°46' W 074°00'1 1.7
2017-Oct-22 02:01N 40°46' W 074°01'1 1.6
2017-Oct-22 01:30N 40°46' W 074°00'1 1.8
2017-Oct-22 01:00N 40°45' W 074°01'1 1.8
2017-Oct-22 00:30N 40°46' W 074°00'1 1.8
2017-Oct-22 00:00N 40°45' W 074°01'1 1.8
2017-Oct-21 23:30N 40°46' W 074°00'1 1.5
2017-Oct-21 23:00N 40°45' W 074°01'1 1.4
2017-Oct-21 22:30N 40°46' W 074°00'1 1.6
2017-Oct-21 22:00N 40°46' W 074°01'1 1.7
2017-Oct-21 21:30N 40°46' W 074°00'1 1.7
2017-Oct-21 21:00N 40°46' W 074°01'1 1.7
2017-Oct-21 20:30N 40°46' W 074°00'1 1.5
2017-Oct-21 20:00N 40°45' W 074°01'1 1.5
2017-Oct-21 19:30N 40°46' W 074°00'1 1.7
2017-Oct-21 19:00N 40°46' W 074°01'1 1.7
2017-Oct-21 18:30N 40°46' W 074°00'1 1.7
2017-Oct-21 18:00N 40°45' W 074°01'1 1.8
2017-Oct-21 17:30N 40°46' W 074°00'1 1.9
2017-Oct-21 17:00N 40°45' W 074°01'1 1.8
2017-Oct-21 16:30N 40°46' W 074°00'1 1.7
2017-Oct-21 16:00N 40°46' W 074°01'1 1.6
2017-Oct-21 15:30N 40°46' W 074°00'1 1.6
2017-Oct-21 15:00N 40°46' W 074°01'0 0.1
2017-Oct-21 14:00N 40°45' W 074°01'1 1.4
2017-Oct-21 13:30N 40°46' W 074°00'1 1.6
2017-Oct-21 13:00N 40°45' W 074°01'1 0.1
2017-Oct-21 00:29N 40°46' W 074°01'1 1.5
2017-Oct-21 00:00N 40°46' W 074°00'0 0.1
2017-Oct-20 23:30N 40°46' W 074°00'0 0.2
2017-Oct-20 23:00N 40°46' W 074°00'0 0.1
2017-Oct-20 22:30N 40°46' W 074°00'0 0.2
2017-Oct-20 22:00N 40°46' W 074°00'0 0.1
2017-Oct-20 21:30N 40°46' W 074°00'0 0.1
2017-Oct-20 21:00N 40°46' W 074°00'0 0.0
2017-Oct-20 20:30N 40°46' W 074°00'0 0.1
2017-Oct-20 20:00N 40°46' W 074°00'1 0.1
2017-Oct-20 14:31N 40°46' W 074°01'0 0.0
2017-Oct-20 14:27N 40°46' W 074°01'0 0.4
2017-Oct-20 13:30N 40°46' W 074°00'0 0.2
2017-Oct-20 13:00N 40°46' W 074°00'0 0.9
2017-Oct-20 12:30N 40°46' W 074°00'0 0.5
2017-Oct-20 12:00N 40°46' W 074°00'0 0.0
2017-Oct-20 11:30N 40°46' W 074°00'0 0.3
2017-Oct-20 11:00N 40°46' W 074°00'0 0.3
2017-Oct-20 10:30N 40°46' W 074°00'1 2.2
2017-Oct-20 10:00N 40°47' W 074°00'1 0.1
2017-Oct-20 00:37N 40°46' W 074°01'0 3.9
2017-Oct-20 00:30N 40°47' W 074°00'1 2.0
2017-Oct-20 00:00N 40°47' W 073°59'0 0.6
2017-Oct-19 23:30N 40°47' W 073°60'1 1.7
2017-Oct-19 23:00N 40°46' W 074°00'1 1.5
2017-Oct-19 22:30N 40°46' W 074°00'0 0.1
2017-Oct-19 21:59N 40°46' W 074°00'0 0.3
2017-Oct-19 21:30N 40°46' W 074°00'0 0.1
2017-Oct-19 21:00N 40°46' W 074°00'0 0.1
2017-Oct-19 20:30N 40°46' W 074°00'0 0.2
2017-Oct-19 20:00N 40°46' W 074°00'1 0.1
2017-Oct-19 14:11N 40°46' W 074°01'0 2.3
2017-Oct-19 14:00N 40°46' W 074°00'1 1.2
2017-Oct-19 13:30N 40°47' W 074°00'0 0.8
2017-Oct-19 13:00N 40°47' W 073°60'1 1.0
2017-Oct-19 12:30N 40°46' W 074°00'1 1.6
2017-Oct-19 12:01N 40°46' W 074°00'0 0.1
2017-Oct-19 11:30N 40°46' W 074°00'0 0.4
2017-Oct-19 11:01N 40°46' W 074°00'0 0.6
2017-Oct-19 10:30N 40°46' W 074°00'1 1.7
2017-Oct-19 10:00N 40°46' W 074°01'0 0.0
2017-Oct-19 00:29N 40°46' W 074°01'1 1.5
2017-Oct-19 00:00N 40°46' W 074°00'0 0.5
2017-Oct-18 23:30N 40°46' W 074°00'0 0.5
2017-Oct-18 23:00N 40°46' W 074°00'0 0.9
2017-Oct-18 22:30N 40°46' W 074°00'0 0.0
2017-Oct-18 22:00N 40°46' W 074°00'0 0.0
2017-Oct-18 21:30N 40°46' W 074°00'0 0.2
2017-Oct-18 21:00N 40°46' W 074°00'0 0.2
2017-Oct-18 20:30N 40°46' W 074°00'0 0.0
2017-Oct-18 20:00N 40°46' W 074°00'0 0.0
2017-Oct-18 14:00N 40°46' W 074°00'0 0.7
2017-Oct-18 13:30N 40°46' W 074°00'0 0.9
2017-Oct-18 13:00N 40°46' W 074°00'0 1.0
2017-Oct-18 12:30N 40°46' W 074°00'0 0.6
2017-Oct-18 12:00N 40°46' W 074°00'0 0.0
2017-Oct-18 11:30N 40°46' W 074°00'0 0.1
2017-Oct-18 11:00N 40°46' W 074°00'0 0.1
2017-Oct-18 10:30N 40°46' W 074°00'1 2.3
2017-Oct-18 10:01N 40°47' W 074°00'1 0.1
2017-Oct-18 00:33N 40°46' W 074°01'0 0.0
2017-Oct-18 00:30N 40°46' W 074°01'1 1.3
2017-Oct-18 00:00N 40°46' W 074°00'0 0.7
2017-Oct-17 23:31N 40°46' W 074°00'0 0.3
2017-Oct-17 23:00N 40°46' W 074°00'1 1.1
2017-Oct-17 22:30N 40°46' W 074°00'0 0.0
2017-Oct-17 22:00N 40°46' W 074°00'0 0.0
2017-Oct-17 21:30N 40°46' W 074°00'0 0.1
2017-Oct-17 21:00N 40°46' W 074°00'0 0.0
2017-Oct-17 20:30N 40°46' W 074°00'0 0.1
2017-Oct-17 20:00N 40°46' W 074°00'1 0.1
2017-Oct-17 14:08N 40°46' W 074°01'1 5.0
2017-Oct-17 14:00N 40°46' W 074°00'1 1.7
2017-Oct-17 13:30N 40°47' W 074°00'0 0.2
2017-Oct-17 13:00N 40°47' W 073°60'1 0.8
2017-Oct-17 12:00N 40°46' W 074°00'0 0.4
2017-Oct-17 11:30N 40°46' W 074°00'0 0.0
2017-Oct-17 11:00N 40°46' W 074°00'0 0.1
2017-Oct-17 10:30N 40°46' W 074°00'1 2.9
2017-Oct-17 10:00N 40°47' W 073°60'1 0.1
2017-Oct-17 00:29N 40°46' W 074°01'1 1.5
2017-Oct-17 00:00N 40°46' W 074°00'1 1.1
2017-Oct-16 23:30N 40°46' W 074°00'0 0.9
2017-Oct-16 23:01N 40°46' W 074°00'0 0.3
2017-Oct-16 22:30N 40°46' W 074°00'0 0.0
2017-Oct-16 22:00N 40°46' W 074°00'0 0.0
2017-Oct-16 21:30N 40°46' W 074°00'0 0.1
2017-Oct-16 21:00N 40°46' W 074°00'0 0.1
2017-Oct-16 20:30N 40°46' W 074°00'0 0.2
2017-Oct-16 20:00N 40°46' W 074°00'0 0.0
2017-Oct-16 14:00N 40°46' W 074°00'1 1.6
2017-Oct-16 13:31N 40°46' W 074°00'1 1.1
2017-Oct-16 13:01N 40°47' W 073°60'1 1.8
2017-Oct-16 12:30N 40°46' W 074°00'0 0.8
2017-Oct-16 12:00N 40°46' W 074°00'0 0.3
2017-Oct-16 11:30N 40°46' W 074°00'0 0.2
2017-Oct-16 11:00N 40°46' W 074°00'0 0.2
2017-Oct-16 10:30N 40°46' W 074°00'1 2.0
2017-Oct-16 10:00N 40°47' W 074°00'1 0.1
2017-Oct-16 02:31N 40°46' W 074°01'0 0.0
2017-Oct-16 00:42N 40°46' W 074°01'0 0.6
2017-Oct-16 00:30N 40°46' W 074°01'1 2.0
2017-Oct-16 00:00N 40°45' W 074°01'1 1.4
2017-Oct-15 23:31N 40°46' W 074°00'1 1.8
2017-Oct-15 23:00N 40°45' W 074°01'1 1.7
2017-Oct-15 22:30N 40°46' W 074°00'1 1.4
2017-Oct-15 22:00N 40°45' W 074°01'1 1.6
2017-Oct-15 21:30N 40°46' W 074°00'1 1.6
2017-Oct-15 21:01N 40°45' W 074°01'1 1.6
2017-Oct-15 20:30N 40°46' W 074°00'1 1.5
2017-Oct-15 20:00N 40°45' W 074°01'1 1.5
2017-Oct-15 19:30N 40°46' W 074°00'1 1.6
2017-Oct-15 19:00N 40°45' W 074°01'1 1.6
2017-Oct-15 18:30N 40°46' W 074°00'1 1.8
2017-Oct-15 18:01N 40°45' W 074°01'1 1.7
2017-Oct-15 17:30N 40°46' W 074°00'1 1.8
2017-Oct-15 17:00N 40°45' W 074°01'1 1.7
2017-Oct-15 16:30N 40°46' W 074°00'1 1.5
2017-Oct-15 16:00N 40°45' W 074°01'1 1.5
2017-Oct-15 15:30N 40°46' W 074°00'1 1.6
2017-Oct-15 15:00N 40°45' W 074°01'0 0.0
2017-Oct-15 14:00N 40°45' W 074°01'1 1.5
2017-Oct-15 13:30N 40°46' W 074°00'1 1.4
2017-Oct-15 13:00N 40°45' W 074°01'1 1.9
2017-Oct-15 12:30N 40°46' W 074°01'0 0.0
2017-Oct-15 12:00N 40°46' W 074°01'0 0.0
2017-Oct-15 11:30N 40°46' W 074°01'0 0.0
2017-Oct-15 11:00N 40°46' W 074°01'0 0.0
2017-Oct-15 10:30N 40°46' W 074°01'0 0.0
2017-Oct-15 10:00N 40°46' W 074°01'0 0.0
2017-Oct-15 09:30N 40°46' W 074°01'0 0.0
2017-Oct-15 09:00N 40°46' W 074°01'0 0.0
2017-Oct-15 04:28N 40°46' W 074°01'1 2.7
2017-Oct-15 04:00N 40°45' W 074°01'1 1.9
2017-Oct-15 03:30N 40°46' W 074°00'1 1.9
2017-Oct-15 03:00N 40°45' W 074°01'1 1.9
2017-Oct-15 02:30N 40°46' W 074°00'1 1.7
2017-Oct-15 02:00N 40°45' W 074°01'1 1.6
2017-Oct-15 01:30N 40°46' W 074°00'1 1.9
2017-Oct-15 01:00N 40°45' W 074°01'1 1.7
2017-Oct-15 00:30N 40°46' W 074°00'1 1.5
2017-Oct-15 00:01N 40°46' W 074°01'1 1.5
2017-Oct-14 23:30N 40°46' W 074°00'1 1.7
2017-Oct-14 23:00N 40°45' W 074°01'1 1.9
2017-Oct-14 22:30N 40°46' W 074°00'1 1.8
2017-Oct-14 22:00N 40°46' W 074°01'0 0.9
2017-Oct-14 21:30N 40°46' W 074°01'0 0.9
2017-Oct-14 21:00N 40°46' W 074°01'1 1.7
2017-Oct-14 20:30N 40°46' W 074°00'1 1.8
2017-Oct-14 20:00N 40°45' W 074°01'1 1.8
2017-Oct-14 19:30N 40°46' W 074°00'1 1.7
2017-Oct-14 19:00N 40°45' W 074°01'1 1.7
2017-Oct-14 18:30N 40°46' W 074°00'1 1.7
2017-Oct-14 18:00N 40°45' W 074°01'1 1.7
2017-Oct-14 17:30N 40°46' W 074°00'1 1.5
2017-Oct-14 17:00N 40°45' W 074°01'1 1.5
2017-Oct-14 16:30N 40°46' W 074°00'1 1.5
2017-Oct-14 16:00N 40°45' W 074°01'1 1.5
2017-Oct-14 15:30N 40°46' W 074°00'1 1.5
2017-Oct-14 15:00N 40°45' W 074°01'1 1.5
2017-Oct-14 14:30N 40°46' W 074°00'1 1.5
2017-Oct-14 14:00N 40°45' W 074°01'1 1.6
2017-Oct-14 13:30N 40°46' W 074°00'1 1.9
2017-Oct-14 13:00N 40°45' W 074°01'1 2.4
2017-Oct-14 12:30N 40°46' W 074°01'0 0.0
2017-Oct-14 12:00N 40°46' W 074°01'0 0.0
2017-Oct-14 11:30N 40°46' W 074°01'0 0.0
2017-Oct-14 11:01N 40°46' W 074°01'0 0.0
2017-Oct-14 10:30N 40°46' W 074°01'0 0.0
2017-Oct-14 10:00N 40°46' W 074°01'0 0.0
2017-Oct-14 09:30N 40°46' W 074°01'0 0.0
2017-Oct-14 09:00N 40°46' W 074°01'0 0.0
2017-Oct-14 08:30N 40°46' W 074°01'0 0.0
2017-Oct-14 08:00N 40°46' W 074°01'0 0.0
2017-Oct-14 07:30N 40°46' W 074°01'0 0.0
2017-Oct-14 07:00N 40°46' W 074°01'0 0.0
2017-Oct-14 06:30N 40°46' W 074°01'0 0.0
2017-Oct-14 06:01N 40°46' W 074°01'0 0.0
2017-Oct-14 00:30N 40°46' W 074°01'1 1.5
2017-Oct-14 00:00N 40°46' W 074°00'0 0.0
2017-Oct-13 23:30N 40°46' W 074°00'0 0.0
2017-Oct-13 23:00N 40°46' W 074°00'0 0.0
2017-Oct-13 22:30N 40°46' W 074°00'0 0.0
2017-Oct-13 22:00N 40°46' W 074°00'0 0.1
2017-Oct-13 21:30N 40°46' W 074°00'0 0.1
2017-Oct-13 21:00N 40°46' W 074°00'0 0.0
2017-Oct-13 20:30N 40°46' W 074°00'0 0.1
2017-Oct-13 20:00N 40°46' W 074°00'1 0.1
2017-Oct-13 14:03N 40°46' W 074°01'0 3.9
2017-Oct-13 14:00N 40°46' W 074°01'1 1.1
2017-Oct-13 13:30N 40°46' W 074°00'0 0.0
2017-Oct-13 13:00N 40°46' W 074°00'0 0.0
2017-Oct-13 12:30N 40°46' W 074°00'0 0.0
2017-Oct-13 12:00N 40°46' W 074°00'0 0.0
2017-Oct-13 11:29N 40°46' W 074°00'0 0.1
2017-Oct-13 11:00N 40°46' W 074°00'0 0.2
2017-Oct-13 10:30N 40°46' W 074°00'2 3.1
2017-Oct-13 10:00N 40°47' W 073°60'1 0.1
2017-Oct-13 00:26N 40°46' W 074°01'1 1.7
2017-Oct-13 00:00N 40°46' W 074°00'0 0.1
2017-Oct-12 23:30N 40°46' W 074°00'0 0.1
2017-Oct-12 23:00N 40°46' W 074°00'0 0.0
2017-Oct-12 22:30N 40°46' W 074°00'0 0.0
2017-Oct-12 22:00N 40°46' W 074°00'0 0.0
2017-Oct-12 21:30N 40°46' W 074°00'0 0.0
2017-Oct-12 21:00N 40°46' W 074°00'0 0.0
2017-Oct-12 20:30N 40°46' W 074°00'0 0.2
2017-Oct-12 20:00N 40°46' W 074°00'1 0.1
2017-Oct-12 14:09N 40°46' W 074°01'1 4.9
2017-Oct-12 14:00N 40°46' W 074°00'0 0.5
2017-Oct-12 13:30N 40°46' W 074°00'0 0.4
2017-Oct-12 13:00N 40°46' W 074°00'0 0.2
2017-Oct-12 12:30N 40°46' W 074°00'0 0.0
2017-Oct-12 12:00N 40°46' W 074°00'0 0.2
2017-Oct-12 11:30N 40°46' W 074°00'0 0.1
2017-Oct-12 11:00N 40°46' W 074°00'0 0.4
2017-Oct-12 10:30N 40°46' W 074°00'1 2.7
2017-Oct-12 10:00N 40°47' W 073°60'  
Track history (hours):
 
Tides and Currents Weather Stations Pressure Air Temp Water Temp Dewpoint Dewpoint Depression Visibility Wind Speed Wind Dir Waves Ship Positions

Moira Smith

Owner: Port Imperial Ferry Corp, Weehawken, NJ. More information available from US FCC via Universal Licensing System and Coast Guard Vessel Documentation Center.

Last reported at 2017-Oct-22 04:29 UTC. Time now 2017-Oct-22 18:54 UTC.
Position N 40°46' W 074°01'.

Length 22 m.

Type: Passenger vessel. MMSI: 366834180.

Date/timePositionNaut miles runAvg speedWind from/ knotsBaromVisibWave heightAir tempDewpointWater temp
2017-Oct-22 04:29N 40°46' W 074°01'1 2.3
2017-Oct-22 04:00N 40°45' W 074°01'1 1.6
2017-Oct-22 03:30N 40°46' W 074°00'1 1.6
2017-Oct-22 03:00N 40°45' W 074°01'1 1.5
2017-Oct-22 02:30N 40°46' W 074°00'1 1.7
2017-Oct-22 02:01N 40°46' W 074°01'1 1.6
2017-Oct-22 01:30N 40°46' W 074°00'1 1.8
2017-Oct-22 01:00N 40°45' W 074°01'1 1.8
2017-Oct-22 00:30N 40°46' W 074°00'1 1.8
2017-Oct-22 00:00N 40°45' W 074°01'1 1.8
2017-Oct-21 23:30N 40°46' W 074°00'1 1.5
2017-Oct-21 23:00N 40°45' W 074°01'1 1.4
2017-Oct-21 22:30N 40°46' W 074°00'1 1.6
2017-Oct-21 22:00N 40°46' W 074°01'1 1.7
2017-Oct-21 21:30N 40°46' W 074°00'1 1.7
2017-Oct-21 21:00N 40°46' W 074°01'1 1.7
2017-Oct-21 20:30N 40°46' W 074°00'1 1.5
2017-Oct-21 20:00N 40°45' W 074°01'1 1.5
2017-Oct-21 19:30N 40°46' W 074°00'1 1.7
2017-Oct-21 19:00N 40°46' W 074°01'1 1.7
2017-Oct-21 18:30N 40°46' W 074°00'1 1.7
2017-Oct-21 18:00N 40°45' W 074°01'1 1.8
2017-Oct-21 17:30N 40°46' W 074°00'1 1.9
2017-Oct-21 17:00N 40°45' W 074°01'1 1.8
2017-Oct-21 16:30N 40°46' W 074°00'1 1.7
2017-Oct-21 16:00N 40°46' W 074°01'1 1.6
2017-Oct-21 15:30N 40°46' W 074°00'1 1.6
2017-Oct-21 15:00N 40°46' W 074°01'0 0.1
2017-Oct-21 14:00N 40°45' W 074°01'1 1.4
2017-Oct-21 13:30N 40°46' W 074°00'1 1.6
2017-Oct-21 13:00N 40°45' W 074°01'1 0.1
2017-Oct-21 00:29N 40°46' W 074°01'1 1.5
2017-Oct-21 00:00N 40°46' W 074°00'0 0.1
2017-Oct-20 23:30N 40°46' W 074°00'0 0.2
2017-Oct-20 23:00N 40°46' W 074°00'0 0.1
2017-Oct-20 22:30N 40°46' W 074°00'0 0.2
2017-Oct-20 22:00N 40°46' W 074°00'0 0.1
2017-Oct-20 21:30N 40°46' W 074°00'0 0.1
2017-Oct-20 21:00N 40°46' W 074°00'0 0.0
2017-Oct-20 20:30N 40°46' W 074°00'0 0.1
2017-Oct-20 20:00N 40°46' W 074°00'1 0.1
2017-Oct-20 14:31N 40°46' W 074°01'0 0.0
2017-Oct-20 14:27N 40°46' W 074°01'0 0.4
2017-Oct-20 13:30N 40°46' W 074°00'0 0.2
2017-Oct-20 13:00N 40°46' W 074°00'0 0.9
2017-Oct-20 12:30N 40°46' W 074°00'0 0.5
2017-Oct-20 12:00N 40°46' W 074°00'0 0.0
2017-Oct-20 11:30N 40°46' W 074°00'0 0.3
2017-Oct-20 11:00N 40°46' W 074°00'0 0.3
2017-Oct-20 10:30N 40°46' W 074°00'1 2.2
2017-Oct-20 10:00N 40°47' W 074°00'1 0.1
2017-Oct-20 00:37N 40°46' W 074°01'0 3.9
2017-Oct-20 00:30N 40°47' W 074°00'1 2.0
2017-Oct-20 00:00N 40°47' W 073°59'0 0.6
2017-Oct-19 23:30N 40°47' W 073°60'1 1.7
2017-Oct-19 23:00N 40°46' W 074°00'1 1.5
2017-Oct-19 22:30N 40°46' W 074°00'0 0.1
2017-Oct-19 21:59N 40°46' W 074°00'0 0.3
2017-Oct-19 21:30N 40°46' W 074°00'0 0.1
2017-Oct-19 21:00N 40°46' W 074°00'0 0.1
2017-Oct-19 20:30N 40°46' W 074°00'0 0.2
2017-Oct-19 20:00N 40°46' W 074°00'1 0.1
2017-Oct-19 14:11N 40°46' W 074°01'0 2.3
2017-Oct-19 14:00N 40°46' W 074°00'1 1.2
2017-Oct-19 13:30N 40°47' W 074°00'0 0.8
2017-Oct-19 13:00N 40°47' W 073°60'1 1.0
2017-Oct-19 12:30N 40°46' W 074°00'1 1.6
2017-Oct-19 12:01N 40°46' W 074°00'0 0.1
2017-Oct-19 11:30N 40°46' W 074°00'0 0.4
2017-Oct-19 11:01N 40°46' W 074°00'0 0.6
2017-Oct-19 10:30N 40°46' W 074°00'1 1.7
2017-Oct-19 10:00N 40°46' W 074°01'0 0.0
2017-Oct-19 00:29N 40°46' W 074°01'1 1.5
2017-Oct-19 00:00N 40°46' W 074°00'0 0.5
2017-Oct-18 23:30N 40°46' W 074°00'0 0.5
2017-Oct-18 23:00N 40°46' W 074°00'0 0.9
2017-Oct-18 22:30N 40°46' W 074°00'0 0.0
2017-Oct-18 22:00N 40°46' W 074°00'0 0.0
2017-Oct-18 21:30N 40°46' W 074°00'0 0.2
2017-Oct-18 21:00N 40°46' W 074°00'0 0.2
2017-Oct-18 20:30N 40°46' W 074°00'0 0.0
2017-Oct-18 20:00N 40°46' W 074°00'0 0.0
2017-Oct-18 14:00N 40°46' W 074°00'0 0.7
2017-Oct-18 13:30N 40°46' W 074°00'0 0.9
2017-Oct-18 13:00N 40°46' W 074°00'0 1.0
2017-Oct-18 12:30N 40°46' W 074°00'0 0.6
2017-Oct-18 12:00N 40°46' W 074°00'0 0.0
2017-Oct-18 11:30N 40°46' W 074°00'0 0.1
2017-Oct-18 11:00N 40°46' W 074°00'0 0.1
2017-Oct-18 10:30N 40°46' W 074°00'1 2.3
2017-Oct-18 10:01N 40°47' W 074°00'1 0.1
2017-Oct-18 00:33N 40°46' W 074°01'0 0.0
2017-Oct-18 00:30N 40°46' W 074°01'1 1.3
2017-Oct-18 00:00N 40°46' W 074°00'0 0.7
2017-Oct-17 23:31N 40°46' W 074°00'0 0.3
2017-Oct-17 23:00N 40°46' W 074°00'1 1.1
2017-Oct-17 22:30N 40°46' W 074°00'0 0.0
2017-Oct-17 22:00N 40°46' W 074°00'0 0.0
2017-Oct-17 21:30N 40°46' W 074°00'0 0.1
2017-Oct-17 21:00N 40°46' W 074°00'0 0.0
2017-Oct-17 20:30N 40°46' W 074°00'0 0.1
2017-Oct-17 20:00N 40°46' W 074°00'1 0.1
2017-Oct-17 14:08N 40°46' W 074°01'1 5.0
2017-Oct-17 14:00N 40°46' W 074°00'1 1.7
2017-Oct-17 13:30N 40°47' W 074°00'0 0.2
2017-Oct-17 13:00N 40°47' W 073°60'1 0.8
2017-Oct-17 12:00N 40°46' W 074°00'0 0.4
2017-Oct-17 11:30N 40°46' W 074°00'0 0.0
2017-Oct-17 11:00N 40°46' W 074°00'0 0.1
2017-Oct-17 10:30N 40°46' W 074°00'1 2.9
2017-Oct-17 10:00N 40°47' W 073°60'1 0.1
2017-Oct-17 00:29N 40°46' W 074°01'1 1.5
2017-Oct-17 00:00N 40°46' W 074°00'1 1.1
2017-Oct-16 23:30N 40°46' W 074°00'0 0.9
2017-Oct-16 23:01N 40°46' W 074°00'0 0.3
2017-Oct-16 22:30N 40°46' W 074°00'0 0.0
2017-Oct-16 22:00N 40°46' W 074°00'0 0.0
2017-Oct-16 21:30N 40°46' W 074°00'0 0.1
2017-Oct-16 21:00N 40°46' W 074°00'0 0.1
2017-Oct-16 20:30N 40°46' W 074°00'0 0.2
2017-Oct-16 20:00N 40°46' W 074°00'0 0.0
2017-Oct-16 14:00N 40°46' W 074°00'1 1.6
2017-Oct-16 13:31N 40°46' W 074°00'1 1.1
2017-Oct-16 13:01N 40°47' W 073°60'1 1.8
2017-Oct-16 12:30N 40°46' W 074°00'0 0.8
2017-Oct-16 12:00N 40°46' W 074°00'0 0.3
2017-Oct-16 11:30N 40°46' W 074°00'0 0.2
2017-Oct-16 11:00N 40°46' W 074°00'0 0.2
2017-Oct-16 10:30N 40°46' W 074°00'1 2.0
2017-Oct-16 10:00N 40°47' W 074°00'1 0.1
2017-Oct-16 02:31N 40°46' W 074°01'0 0.0
2017-Oct-16 00:42N 40°46' W 074°01'0 0.6
2017-Oct-16 00:30N 40°46' W 074°01'1 2.0
2017-Oct-16 00:00N 40°45' W 074°01'1 1.4
2017-Oct-15 23:31N 40°46' W 074°00'1 1.8
2017-Oct-15 23:00N 40°45' W 074°01'1 1.7
2017-Oct-15 22:30N 40°46' W 074°00'1 1.4
2017-Oct-15 22:00N 40°45' W 074°01'1 1.6
2017-Oct-15 21:30N 40°46' W 074°00'1 1.6
2017-Oct-15 21:01N 40°45' W 074°01'1 1.6
2017-Oct-15 20:30N 40°46' W 074°00'1 1.5
2017-Oct-15 20:00N 40°45' W 074°01'1 1.5
2017-Oct-15 19:30N 40°46' W 074°00'1 1.6
2017-Oct-15 19:00N 40°45' W 074°01'1 1.6
2017-Oct-15 18:30N 40°46' W 074°00'1 1.8
2017-Oct-15 18:01N 40°45' W 074°01'1 1.7
2017-Oct-15 17:30N 40°46' W 074°00'1 1.8
2017-Oct-15 17:00N 40°45' W 074°01'1 1.7
2017-Oct-15 16:30N 40°46' W 074°00'1 1.5
2017-Oct-15 16:00N 40°45' W 074°01'1 1.5
2017-Oct-15 15:30N 40°46' W 074°00'1 1.6
2017-Oct-15 15:00N 40°45' W 074°01'0 0.0
2017-Oct-15 14:00N 40°45' W 074°01'1 1.5
2017-Oct-15 13:30N 40°46' W 074°00'1 1.4
2017-Oct-15 13:00N 40°45' W 074°01'1 1.9
2017-Oct-15 12:30N 40°46' W 074°01'0 0.0
2017-Oct-15 12:00N 40°46' W 074°01'0 0.0
2017-Oct-15 11:30N 40°46' W 074°01'0 0.0
2017-Oct-15 11:00N 40°46' W 074°01'0 0.0
2017-Oct-15 10:30N 40°46' W 074°01'0 0.0
2017-Oct-15 10:00N 40°46' W 074°01'0 0.0
2017-Oct-15 09:30N 40°46' W 074°01'0 0.0
2017-Oct-15 09:00N 40°46' W 074°01'0 0.0
2017-Oct-15 04:28N 40°46' W 074°01'1 2.7
2017-Oct-15 04:00N 40°45' W 074°01'1 1.9
2017-Oct-15 03:30N 40°46' W 074°00'1 1.9
2017-Oct-15 03:00N 40°45' W 074°01'1 1.9
2017-Oct-15 02:30N 40°46' W 074°00'1 1.7
2017-Oct-15 02:00N 40°45' W 074°01'1 1.6
2017-Oct-15 01:30N 40°46' W 074°00'1 1.9
2017-Oct-15 01:00N 40°45' W 074°01'1 1.7
2017-Oct-15 00:30N 40°46' W 074°00'1 1.5
2017-Oct-15 00:01N 40°46' W 074°01'1 1.5
2017-Oct-14 23:30N 40°46' W 074°00'1 1.7
2017-Oct-14 23:00N 40°45' W 074°01'1 1.9
2017-Oct-14 22:30N 40°46' W 074°00'1 1.8
2017-Oct-14 22:00N 40°46' W 074°01'0 0.9
2017-Oct-14 21:30N 40°46' W 074°01'0 0.9
2017-Oct-14 21:00N 40°46' W 074°01'1 1.7
2017-Oct-14 20:30N 40°46' W 074°00'1 1.8
2017-Oct-14 20:00N 40°45' W 074°01'1 1.8
2017-Oct-14 19:30N 40°46' W 074°00'1 1.7
2017-Oct-14 19:00N 40°45' W 074°01'1 1.7
2017-Oct-14 18:30N 40°46' W 074°00'1 1.7
2017-Oct-14 18:00N 40°45' W 074°01'1 1.7
2017-Oct-14 17:30N 40°46' W 074°00'1 1.5
2017-Oct-14 17:00N 40°45' W 074°01'1 1.5
2017-Oct-14 16:30N 40°46' W 074°00'1 1.5
2017-Oct-14 16:00N 40°45' W 074°01'1 1.5
2017-Oct-14 15:30N 40°46' W 074°00'1 1.5
2017-Oct-14 15:00N 40°45' W 074°01'1 1.5
2017-Oct-14 14:30N 40°46' W 074°00'1 1.5
2017-Oct-14 14:00N 40°45' W 074°01'1 1.6
2017-Oct-14 13:30N 40°46' W 074°00'1 1.9
2017-Oct-14 13:00N 40°45' W 074°01'1 2.4
2017-Oct-14 12:30N 40°46' W 074°01'0 0.0
2017-Oct-14 12:00N 40°46' W 074°01'0 0.0
2017-Oct-14 11:30N 40°46' W 074°01'0 0.0
2017-Oct-14 11:01N 40°46' W 074°01'0 0.0
2017-Oct-14 10:30N 40°46' W 074°01'0 0.0
2017-Oct-14 10:00N 40°46' W 074°01'0 0.0
2017-Oct-14 09:30N 40°46' W 074°01'0 0.0
2017-Oct-14 09:00N 40°46' W 074°01'0 0.0
2017-Oct-14 08:30N 40°46' W 074°01'0 0.0
2017-Oct-14 08:00N 40°46' W 074°01'0 0.0
2017-Oct-14 07:30N 40°46' W 074°01'0 0.0
2017-Oct-14 07:00N 40°46' W 074°01'0 0.0
2017-Oct-14 06:30N 40°46' W 074°01'0 0.0
2017-Oct-14 06:01N 40°46' W 074°01'0 0.0
2017-Oct-14 00:30N 40°46' W 074°01'1 1.5
2017-Oct-14 00:00N 40°46' W 074°00'0 0.0
2017-Oct-13 23:30N 40°46' W 074°00'0 0.0
2017-Oct-13 23:00N 40°46' W 074°00'0 0.0
2017-Oct-13 22:30N 40°46' W 074°00'0 0.0
2017-Oct-13 22:00N 40°46' W 074°00'0 0.1
2017-Oct-13 21:30N 40°46' W 074°00'0 0.1
2017-Oct-13 21:00N 40°46' W 074°00'0 0.0
2017-Oct-13 20:30N 40°46' W 074°00'0 0.1
2017-Oct-13 20:00N 40°46' W 074°00'1 0.1
2017-Oct-13 14:03N 40°46' W 074°01'0 3.9
2017-Oct-13 14:00N 40°46' W 074°01'1 1.1
2017-Oct-13 13:30N 40°46' W 074°00'0 0.0
2017-Oct-13 13:00N 40°46' W 074°00'0 0.0
2017-Oct-13 12:30N 40°46' W 074°00'0 0.0
2017-Oct-13 12:00N 40°46' W 074°00'0 0.0
2017-Oct-13 11:29N 40°46' W 074°00'0 0.1
2017-Oct-13 11:00N 40°46' W 074°00'0 0.2
2017-Oct-13 10:30N 40°46' W 074°00'2 3.1
2017-Oct-13 10:00N 40°47' W 073°60'1 0.1
2017-Oct-13 00:26N 40°46' W 074°01'1 1.7
2017-Oct-13 00:00N 40°46' W 074°00'0 0.1
2017-Oct-12 23:30N 40°46' W 074°00'0 0.1
2017-Oct-12 23:00N 40°46' W 074°00'0 0.0
2017-Oct-12 22:30N 40°46' W 074°00'0 0.0
2017-Oct-12 22:00N 40°46' W 074°00'0 0.0
2017-Oct-12 21:30N 40°46' W 074°00'0 0.0
2017-Oct-12 21:00N 40°46' W 074°00'0 0.0
2017-Oct-12 20:30N 40°46' W 074°00'0 0.2
2017-Oct-12 20:00N 40°46' W 074°00'1 0.1
2017-Oct-12 14:09N 40°46' W 074°01'1 4.9
2017-Oct-12 14:00N 40°46' W 074°00'0 0.5
2017-Oct-12 13:30N 40°46' W 074°00'0 0.4
2017-Oct-12 13:00N 40°46' W 074°00'0 0.2
2017-Oct-12 12:30N 40°46' W 074°00'0 0.0
2017-Oct-12 12:00N 40°46' W 074°00'0 0.2
2017-Oct-12 11:30N 40°46' W 074°00'0 0.1
2017-Oct-12 11:00N 40°46' W 074°00'0 0.4
2017-Oct-12 10:30N 40°46' W 074°00'1 2.7
2017-Oct-12 10:00N 40°47' W 073°60'  

Dump ship's entire track history